createdAt,value
2023-07-03T00:00:58.815Z,100123.72
2023-07-03T00:03:30.016Z,100126.19
2023-07-03T00:06:01.955Z,100125.61
2023-07-03T00:08:32.707Z,100125.37
2023-07-03T00:11:05.766Z,100120.61
2023-07-03T00:13:37.006Z,100120.27
2023-07-03T00:16:08.818Z,100118.20
2023-07-03T00:18:39.843Z,100119.22
2023-07-03T00:21:11.953Z,100118.66
2023-07-03T00:23:43.036Z,100124.09
2023-07-03T00:26:14.082Z,100119.92
2023-07-03T00:28:44.968Z,100117.79
2023-07-03T00:31:15.833Z,100114.03
2023-07-03T00:33:46.959Z,100110.60
2023-07-03T00:36:18.630Z,100110.68
2023-07-03T00:38:50.088Z,100108.07
2023-07-03T00:41:21.563Z,100105.09
2023-07-03T00:43:52.759Z,100104.85
2023-07-03T00:46:23.665Z,100102.80
2023-07-03T00:48:55.104Z,100101.04
2023-07-03T00:51:26.451Z,100101.66
2023-07-03T00:53:57.513Z,100099.84
2023-07-03T00:56:28.493Z,100100.55
2023-07-03T00:58:59.793Z,100099.04
2023-07-03T01:01:38.835Z,100095.91
2023-07-03T01:04:13.800Z,100098.36
2023-07-03T01:06:48.967Z,100102.22
2023-07-03T01:09:22.718Z,100099.05
2023-07-03T01:11:54.524Z,100093.84
2023-07-03T01:14:27.615Z,100096.38
2023-07-03T01:17:00.480Z,100091.19
2023-07-03T01:19:35.469Z,100092.63
2023-07-03T01:22:11.418Z,100094.98
2023-07-03T01:24:48.774Z,100098.14
2023-07-03T01:27:24.978Z,100094.18
2023-07-03T01:29:57.651Z,100090.48
2023-07-03T01:32:33.500Z,100094.08
2023-07-03T01:35:06.272Z,100087.83
2023-07-03T01:37:41.454Z,100084.05
2023-07-03T01:40:15.798Z,100083.34
2023-07-03T01:42:48.871Z,100080.58
2023-07-03T01:45:20.479Z,100079.27
2023-07-03T01:47:51.790Z,100074.23
2023-07-03T01:50:25.743Z,100075.41
2023-07-03T01:53:00.996Z,100076.90
2023-07-03T01:55:41.333Z,100074.20
2023-07-03T01:58:20.492Z,100074.37
2023-07-03T02:00:55.796Z,100071.55
2023-07-03T02:03:32.291Z,100067.44
2023-07-03T02:06:05.372Z,100066.77
2023-07-03T02:08:37.632Z,100060.13
2023-07-03T02:11:16.716Z,100064.38
2023-07-03T02:13:47.566Z,100057.59
2023-07-03T02:16:18.706Z,100054.92
2023-07-03T02:18:50.597Z,100060.27
2023-07-03T02:21:21.940Z,100063.35
2023-07-03T02:23:53.164Z,100062.89
2023-07-03T02:26:24.647Z,100065.95
2023-07-03T02:28:55.676Z,100067.23
2023-07-03T02:31:26.977Z,100070.20
2023-07-03T02:33:58.278Z,100067.77
2023-07-03T02:36:30.910Z,100067.38
2023-07-03T02:39:02.759Z,100064.39
2023-07-03T02:41:33.645Z,100058.48
2023-07-03T02:44:04.909Z,100059.60
2023-07-03T02:46:36.261Z,100060.51
2023-07-03T02:49:07.164Z,100057.04
2023-07-03T02:51:37.924Z,100057.61
2023-07-03T02:54:11.937Z,100055.42
2023-07-03T02:56:43.273Z,100053.66
2023-07-03T02:59:15.772Z,100055.51
2023-07-03T03:01:46.660Z,100052.96
2023-07-03T03:04:18.419Z,100049.94
2023-07-03T03:06:50.259Z,100047.78
2023-07-03T03:09:21.212Z,100048.08
2023-07-03T03:11:52.362Z,100050.34
2023-07-03T03:14:23.819Z,100051.98
2023-07-03T03:16:55.052Z,100051.73
2023-07-03T03:19:26.242Z,100048.56
2023-07-03T03:21:57.038Z,100051.58
2023-07-03T03:24:28.759Z,100055.61
2023-07-03T03:27:06.467Z,100050.73
2023-07-03T03:29:36.035Z,100048.70
2023-07-03T03:32:09.289Z,100049.52
2023-07-03T03:34:39.975Z,100049.25
2023-07-03T03:37:10.731Z,100053.02
2023-07-03T03:39:41.474Z,100052.85
2023-07-03T03:42:12.395Z,100052.23
2023-07-03T03:44:43.323Z,100053.37
2023-07-03T03:47:14.420Z,100056.27
2023-07-03T03:49:45.373Z,100057.27
2023-07-03T03:52:16.538Z,100059.09
2023-07-03T03:54:48.611Z,100058.37
2023-07-03T03:57:19.697Z,100062.16
2023-07-03T03:59:50.919Z,100057.52
2023-07-03T04:02:22.400Z,100063.70
2023-07-03T04:04:53.682Z,100064.02
2023-07-03T04:07:24.672Z,100060.90
2023-07-03T04:09:55.407Z,100062.27
2023-07-03T04:12:26.923Z,100060.98
2023-07-03T04:14:58.302Z,100062.84
2023-07-03T04:17:29.693Z,100061.84
2023-07-03T04:20:00.948Z,100060.38
2023-07-03T04:22:31.995Z,100061.11
2023-07-03T04:25:03.386Z,100064.11
2023-07-03T04:27:34.685Z,100064.65
2023-07-03T04:30:07.470Z,100063.89
2023-07-03T04:32:39.454Z,100067.29
2023-07-03T04:35:11.689Z,100071.53
2023-07-03T04:37:43.462Z,100076.20
2023-07-03T04:40:15.778Z,100074.45
2023-07-03T04:42:46.811Z,100081.39
2023-07-03T04:45:17.835Z,100079.88
2023-07-03T04:47:48.499Z,100081.39
2023-07-03T04:50:23.735Z,100077.85
2023-07-03T04:52:57.439Z,100082.26
2023-07-03T04:55:30.349Z,100085.89
2023-07-03T04:58:01.673Z,100090.23
2023-07-03T05:00:33.332Z,100085.82
2023-07-03T05:03:05.126Z,100090.30
2023-07-03T05:05:36.515Z,100087.70
2023-07-03T05:08:07.885Z,100093.26
2023-07-03T05:10:38.932Z,100095.92
2023-07-03T05:13:09.648Z,100092.50
2023-07-03T05:15:40.780Z,100084.31
2023-07-03T05:18:11.995Z,100084.80
2023-07-03T05:20:45.216Z,100081.27
2023-07-03T05:23:16.662Z,100077.40
2023-07-03T05:25:49.839Z,100071.36
2023-07-03T05:28:21.461Z,100065.20
2023-07-03T05:30:58.027Z,100071.41
2023-07-03T05:33:30.162Z,100081.55
2023-07-03T05:36:03.192Z,100077.77
2023-07-03T05:38:34.651Z,100077.67
2023-07-03T05:41:06.046Z,100078.02
2023-07-03T05:43:36.689Z,100078.95
2023-07-03T05:46:07.400Z,100080.90
2023-07-03T05:48:38.773Z,100081.11
2023-07-03T05:51:09.427Z,100080.42
2023-07-03T05:53:40.168Z,100077.81
2023-07-03T05:56:11.371Z,100076.33
2023-07-03T05:58:42.138Z,100078.72
2023-07-03T06:01:13.599Z,100088.77
2023-07-03T06:03:45.511Z,100083.34
2023-07-03T06:06:18.078Z,100085.70
2023-07-03T06:08:49.092Z,100088.48
2023-07-03T06:11:19.960Z,100089.00
2023-07-03T06:13:54.618Z,100090.38
2023-07-03T06:16:28.597Z,100091.71
2023-07-03T06:18:59.718Z,100091.62
2023-07-03T06:21:30.831Z,100093.61
2023-07-03T06:24:04.869Z,100092.25
2023-07-03T06:26:35.694Z,100098.58
2023-07-03T06:29:07.391Z,100117.48
2023-07-03T06:31:38.774Z,100118.61
2023-07-03T06:34:10.006Z,100127.30
2023-07-03T06:36:40.821Z,100121.36
2023-07-03T06:39:12.681Z,100125.30
2023-07-03T06:41:43.565Z,100124.95
2023-07-03T06:44:17.733Z,100125.50
2023-07-03T06:46:50.433Z,100126.27
2023-07-03T06:49:23.759Z,100128.91
2023-07-03T06:51:54.949Z,100138.19
2023-07-03T06:54:25.659Z,100143.92
2023-07-03T06:56:56.609Z,100149.02
2023-07-03T06:59:27.420Z,100152.98
2023-07-03T07:01:59.146Z,100154.07
2023-07-03T07:04:31.245Z,100151.98
2023-07-03T07:07:02.570Z,100154.17
2023-07-03T07:09:33.572Z,100155.54
2023-07-03T07:12:04.720Z,100161.08
2023-07-03T07:14:37.678Z,100162.95
2023-07-03T07:17:08.912Z,100162.20
2023-07-03T07:19:40.051Z,100163.33
2023-07-03T07:22:10.766Z,100155.39
2023-07-03T07:24:41.984Z,100151.34
2023-07-03T07:27:13.698Z,100159.56
2023-07-03T07:29:44.463Z,100161.25
2023-07-03T07:32:15.950Z,100146.84
2023-07-03T07:34:47.307Z,100155.10
2023-07-03T07:37:18.899Z,100155.73
2023-07-03T07:39:49.953Z,100158.63
2023-07-03T07:42:24.975Z,100159.00
2023-07-03T07:44:56.805Z,100161.98
2023-07-03T07:47:27.877Z,100159.89
2023-07-03T07:49:59.380Z,100164.36
2023-07-03T07:52:30.752Z,100162.45
2023-07-03T07:55:01.954Z,100161.49
2023-07-03T07:57:33.028Z,100161.20
2023-07-03T08:00:05.243Z,100162.95
2023-07-03T08:02:36.129Z,100160.08
2023-07-03T08:05:08.437Z,100165.77
2023-07-03T08:07:40.307Z,100166.27
2023-07-03T08:10:12.330Z,100167.13
2023-07-03T08:12:43.550Z,100169.69
2023-07-03T08:15:17.379Z,100165.42
2023-07-03T08:17:49.042Z,100169.27
2023-07-03T08:20:20.334Z,100166.76
2023-07-03T08:22:51.240Z,100165.55
2023-07-03T08:25:22.629Z,100167.10
2023-07-03T08:27:53.524Z,100168.46
2023-07-03T08:30:25.100Z,100170.81
2023-07-03T08:32:56.278Z,100170.46
2023-07-03T08:38:02.790Z,100164.49
2023-07-03T08:40:34.129Z,100166.90
2023-07-03T08:43:07.864Z,100166.08
2023-07-03T08:45:41.513Z,100166.28
2023-07-03T08:48:17.649Z,100176.23
2023-07-03T08:50:53.077Z,100178.10
2023-07-03T08:53:28.489Z,100184.17
2023-07-03T08:56:04.294Z,100186.95
2023-07-03T08:58:35.068Z,100181.76
2023-07-03T09:01:19.755Z,100191.45
2023-07-03T09:04:01.047Z,100197.51
2023-07-03T09:06:38.078Z,100200.91
2023-07-03T09:09:17.188Z,100201.14
2023-07-03T09:11:50.999Z,100199.98
2023-07-03T09:14:29.550Z,100203.89
2023-07-03T09:17:01.258Z,100197.26
2023-07-03T09:19:32.945Z,100210.45
2023-07-03T09:22:06.400Z,100206.30
2023-07-03T09:24:44.021Z,100208.08
2023-07-03T09:27:19.245Z,100210.98
2023-07-03T09:29:50.910Z,100212.36
2023-07-03T09:32:28.261Z,100205.98
2023-07-03T09:35:09.069Z,100215.52
2023-07-03T09:37:42.838Z,100217.33
2023-07-03T09:40:20.215Z,100215.40
2023-07-03T09:42:52.123Z,100211.39
2023-07-03T09:45:25.535Z,100213.09
2023-07-03T09:47:59.845Z,100209.55
2023-07-03T09:50:34.045Z,100210.20
2023-07-03T09:53:09.696Z,100208.38
2023-07-03T09:55:41.525Z,100207.80
2023-07-03T09:58:17.109Z,100215.70
2023-07-03T10:00:51.092Z,100212.44
2023-07-03T10:03:30.762Z,100214.52
2023-07-03T10:08:50.267Z,100210.07
2023-07-03T10:11:28.508Z,100213.58
2023-07-03T10:14:00.170Z,100214.00
2023-07-03T10:16:32.905Z,100209.08
2023-07-03T10:19:04.902Z,100204.41
2023-07-03T10:21:35.587Z,100205.29
2023-07-03T10:24:07.432Z,100200.55
2023-07-03T10:26:48.380Z,100198.67
2023-07-03T10:29:26.220Z,100199.65
2023-07-03T10:32:01.677Z,100198.56
2023-07-03T10:34:39.371Z,100207.24
2023-07-03T10:37:13.170Z,100210.35
2023-07-03T10:39:50.200Z,100209.42
2023-07-03T10:42:25.181Z,100210.52
2023-07-03T10:45:02.301Z,100217.89
2023-07-03T10:47:40.569Z,100224.84
2023-07-03T10:50:12.589Z,100237.64
2023-07-03T10:52:53.873Z,100237.23
2023-07-03T10:55:31.097Z,100248.67
2023-07-03T10:58:14.351Z,100251.19
2023-07-03T11:00:52.433Z,100249.90
2023-07-03T11:03:30.964Z,100257.94
2023-07-03T11:06:05.622Z,100257.33
2023-07-03T11:08:44.953Z,100260.48
2023-07-03T11:11:30.549Z,100259.52
2023-07-03T11:14:09.712Z,100262.30
2023-07-03T11:16:53.000Z,100264.92
2023-07-03T11:25:02.666Z,100257.77
2023-07-03T11:30:16.186Z,100252.76
2023-07-03T11:32:48.555Z,100246.98
2023-07-03T11:40:40.471Z,100237.64
2023-07-03T11:43:34.930Z,100239.66
2023-07-03T11:46:10.446Z,100237.46
2023-07-03T11:48:50.720Z,100232.63
2023-07-03T11:51:35.870Z,100238.05
2023-07-03T11:54:21.094Z,100238.98
2023-07-03T11:57:01.600Z,100244.20
2023-07-03T11:59:48.887Z,100240.34
2023-07-03T12:02:56.639Z,100241.41
2023-07-03T12:06:01.697Z,100248.06
2023-07-03T12:08:48.691Z,100245.37
2023-07-03T12:11:18.030Z,100245.86
2023-07-03T12:13:54.506Z,100247.87
2023-07-03T12:16:31.799Z,100246.72
2023-07-03T12:19:06.234Z,100253.23
2023-07-03T12:21:44.877Z,100247.69
2023-07-03T12:24:29.052Z,100246.67
2023-07-03T12:27:05.552Z,100245.75
2023-07-03T12:29:38.979Z,100254.82
2023-07-03T12:32:11.167Z,100251.33
2023-07-03T12:34:43.769Z,100255.97
2023-07-03T12:37:19.008Z,100265.03
2023-07-03T12:39:51.508Z,100269.31
2023-07-03T12:42:29.395Z,100268.52
2023-07-03T12:45:14.902Z,100268.85
2023-07-03T12:47:46.988Z,100268.30
2023-07-03T12:50:20.006Z,100264.99
2023-07-03T12:52:59.709Z,100263.31
2023-07-03T12:55:33.667Z,100261.64
2023-07-03T12:58:07.427Z,100267.09
2023-07-03T13:00:38.876Z,100263.45
2023-07-03T13:03:15.779Z,100261.86
2023-07-03T13:05:46.721Z,100258.14
2023-07-03T13:08:19.076Z,100266.91
2023-07-03T13:11:01.651Z,100269.12
2023-07-03T13:13:32.774Z,100267.83
2023-07-03T13:16:16.882Z,100258.38
2023-07-03T13:19:01.888Z,100259.46
2023-07-03T13:21:35.304Z,100259.06
2023-07-03T13:24:12.446Z,100257.96
2023-07-03T13:26:48.283Z,100260.46
2023-07-03T13:29:25.847Z,100262.65
2023-07-03T13:32:15.441Z,100269.52
2023-07-03T13:35:07.204Z,100271.88
2023-07-03T13:37:39.798Z,100266.13
2023-07-03T13:40:12.447Z,100271.81
2023-07-03T13:42:43.224Z,100271.67
2023-07-03T13:45:15.898Z,100273.77
2023-07-03T13:47:47.534Z,100270.61
2023-07-03T13:50:18.371Z,100271.00
2023-07-03T13:52:49.500Z,100274.73
2023-07-03T13:55:20.827Z,100275.06
2023-07-03T13:57:52.675Z,100283.70
2023-07-03T14:00:23.908Z,100290.73
2023-07-03T14:02:54.876Z,100292.85
2023-07-03T14:05:26.231Z,100293.15
2023-07-03T14:07:58.064Z,100294.55
2023-07-03T14:10:28.778Z,100293.80
2023-07-03T14:12:59.962Z,100292.80
2023-07-03T14:15:31.886Z,100296.95
2023-07-03T14:18:03.140Z,100289.48
2023-07-03T14:20:33.909Z,100292.67
2023-07-03T14:23:06.522Z,100293.00
2023-07-03T14:25:37.907Z,100292.08
2023-07-03T14:28:08.976Z,100288.86
2023-07-03T14:30:39.799Z,100287.73
2023-07-03T14:33:11.100Z,100286.17
2023-07-03T14:35:41.926Z,100277.65
2023-07-03T14:38:12.671Z,100279.52
2023-07-03T14:40:44.258Z,100275.02
2023-07-03T14:43:15.202Z,100267.17
2023-07-03T14:45:45.953Z,100263.27
2023-07-03T14:48:17.102Z,100262.19
2023-07-03T14:50:48.732Z,100273.36
2023-07-03T14:53:19.974Z,100276.57
2023-07-03T14:55:57.286Z,100280.86
2023-07-03T14:58:26.549Z,100280.27
2023-07-03T15:01:01.034Z,100280.66
2023-07-03T15:03:32.722Z,100282.10
2023-07-03T15:06:09.540Z,100272.70
2023-07-03T15:08:40.489Z,100273.02
2023-07-03T15:11:18.613Z,100275.98
2023-07-03T15:13:49.438Z,100271.99
2023-07-03T15:16:20.771Z,100274.32
2023-07-03T15:18:51.826Z,100270.35
2023-07-03T15:21:23.089Z,100270.25
2023-07-03T15:23:55.546Z,100262.35
2023-07-03T15:26:27.167Z,100264.25
2023-07-03T15:28:57.947Z,100266.41
2023-07-03T15:31:29.073Z,100257.73
2023-07-03T15:34:00.249Z,100257.05
2023-07-03T15:36:31.526Z,100260.45
2023-07-03T15:39:02.754Z,100260.77
2023-07-03T15:41:34.699Z,100254.05
2023-07-03T15:44:05.567Z,100260.91
2023-07-03T15:46:36.396Z,100261.38
2023-07-03T15:49:08.624Z,100265.68
2023-07-03T15:51:39.538Z,100265.80
2023-07-03T15:54:10.830Z,100262.05
2023-07-03T15:56:41.703Z,100262.74
2023-07-03T15:59:13.596Z,100261.23
2023-07-03T16:01:44.487Z,100255.88
2023-07-03T16:04:15.209Z,100265.91
2023-07-03T16:06:46.022Z,100272.32
2023-07-03T16:09:17.235Z,100268.46
2023-07-03T16:11:48.570Z,100267.89
2023-07-03T16:14:20.306Z,100266.66
2023-07-03T16:16:50.986Z,100267.82
2023-07-03T16:19:21.782Z,100266.86
2023-07-03T16:21:52.732Z,100268.77
2023-07-03T16:24:23.901Z,100265.23
2023-07-03T16:26:54.752Z,100261.16
2023-07-03T16:29:25.999Z,100258.44
2023-07-03T16:31:57.103Z,100259.48
2023-07-03T16:34:28.490Z,100253.64
2023-07-03T16:36:59.556Z,100249.66
2023-07-03T16:39:30.528Z,100249.29
2023-07-03T16:42:01.767Z,100246.94
2023-07-03T16:44:32.861Z,100247.36
2023-07-03T16:47:03.753Z,100250.70
2023-07-03T16:49:34.875Z,100252.23
2023-07-03T16:52:05.963Z,100245.58
2023-07-03T16:54:36.979Z,100249.98
2023-07-03T16:57:08.549Z,100250.80
2023-07-03T16:59:39.381Z,100248.13
2023-07-03T17:02:10.378Z,100245.64
2023-07-03T17:04:41.282Z,100241.80
2023-07-03T17:07:12.777Z,100240.83
2023-07-03T17:09:43.564Z,100236.05
2023-07-03T17:12:14.390Z,100242.06
2023-07-03T17:14:45.328Z,100240.11
2023-07-03T17:17:17.682Z,100243.09
2023-07-03T17:19:48.647Z,100238.67
2023-07-03T17:22:21.003Z,100233.09
2023-07-03T17:24:51.876Z,100238.25
2023-07-03T17:27:22.674Z,100236.95
2023-07-03T17:29:53.553Z,100235.27
2023-07-03T17:32:24.443Z,100235.90
2023-07-03T17:34:56.037Z,100234.20
2023-07-03T17:37:27.005Z,100236.52
2023-07-03T17:39:58.540Z,100234.43
2023-07-03T17:42:29.410Z,100233.14
2023-07-03T17:45:00.783Z,100234.36
2023-07-03T17:47:32.241Z,100229.70
2023-07-03T17:50:03.077Z,100230.52
2023-07-03T17:52:33.928Z,100225.18
2023-07-03T17:55:05.328Z,100225.45
2023-07-03T17:57:36.128Z,100230.39
2023-07-03T18:00:09.112Z,100229.23
2023-07-03T18:02:40.381Z,100230.60
2023-07-03T18:05:12.189Z,100225.70
2023-07-03T18:07:43.315Z,100226.14
2023-07-03T18:10:14.134Z,100226.94
2023-07-03T18:12:45.669Z,100226.70
2023-07-03T18:15:17.191Z,100228.63
2023-07-03T18:17:48.022Z,100225.32
2023-07-03T18:20:18.760Z,100223.06
2023-07-03T18:22:49.558Z,100225.79
2023-07-03T18:25:21.243Z,100224.60
2023-07-03T18:27:52.104Z,100223.40
2023-07-03T18:30:23.303Z,100227.29
2023-07-03T18:32:54.648Z,100225.02
2023-07-03T18:35:25.495Z,100227.73
2023-07-03T18:37:56.830Z,100227.98
2023-07-03T18:40:27.520Z,100220.13
2023-07-03T18:42:58.739Z,100217.29
2023-07-03T18:45:29.573Z,100223.75
2023-07-03T18:48:00.847Z,100225.27
2023-07-03T18:50:32.086Z,100225.59
2023-07-03T18:53:03.262Z,100225.11
2023-07-03T18:55:34.370Z,100228.70
2023-07-03T18:58:05.383Z,100223.40
2023-07-03T19:00:36.369Z,100222.41
2023-07-03T19:03:07.523Z,100223.64
2023-07-03T19:05:38.650Z,100222.77
2023-07-03T19:08:12.552Z,100224.34
2023-07-03T19:10:43.949Z,100224.46
2023-07-03T19:13:14.719Z,100225.30
2023-07-03T19:15:45.985Z,100226.30
2023-07-03T19:18:16.772Z,100223.30
2023-07-03T19:20:47.612Z,100222.23
2023-07-03T19:23:18.445Z,100218.04
2023-07-03T19:25:55.344Z,100217.52
2023-07-03T19:28:27.722Z,100216.46
2023-07-03T19:31:02.065Z,100217.06
2023-07-03T19:33:33.904Z,100217.33
2023-07-03T19:36:05.004Z,100221.92
2023-07-03T19:38:38.817Z,100225.70
2023-07-03T19:41:09.974Z,100226.27
2023-07-03T19:43:41.828Z,100228.16
2023-07-03T19:46:13.019Z,100225.98
2023-07-03T19:48:43.926Z,100227.77
2023-07-03T19:51:15.177Z,100233.31
2023-07-03T19:53:46.077Z,100230.88
2023-07-03T19:56:18.528Z,100235.93
2023-07-03T19:58:49.830Z,100237.49
2023-07-03T20:01:21.246Z,100236.38
2023-07-03T20:03:51.988Z,100233.55
2023-07-03T20:06:25.152Z,100233.23
2023-07-03T20:08:56.040Z,100227.22
2023-07-03T20:11:27.259Z,100229.89
2023-07-03T20:13:58.762Z,100227.56
2023-07-03T20:16:31.135Z,100226.60
2023-07-03T20:19:01.976Z,100223.17
2023-07-03T20:21:33.124Z,100221.55
2023-07-03T20:24:03.956Z,100220.35
2023-07-03T20:26:35.091Z,100219.48
2023-07-03T20:29:05.917Z,100219.87
2023-07-03T20:31:36.773Z,100217.88
2023-07-03T20:34:08.130Z,100216.98
2023-07-03T20:36:39.158Z,100217.38
2023-07-03T20:39:10.193Z,100216.39
2023-07-03T20:41:41.037Z,100213.79
2023-07-03T20:44:15.863Z,100210.39
2023-07-03T20:46:46.824Z,100210.77
2023-07-03T20:49:18.108Z,100210.61
2023-07-03T20:51:53.839Z,100209.03
2023-07-03T20:54:34.342Z,100202.17
2023-07-03T20:57:06.627Z,100197.35
2023-07-03T20:59:38.824Z,100202.34
2023-07-03T21:02:10.340Z,100204.08
2023-07-03T21:04:41.707Z,100204.24
2023-07-03T21:07:12.619Z,100203.60
2023-07-03T21:09:43.282Z,100200.89
2023-07-03T21:12:14.899Z,100194.81
2023-07-03T21:14:46.437Z,100198.46
2023-07-03T21:17:17.186Z,100194.86
2023-07-03T21:19:52.011Z,100195.04
2023-07-03T21:22:22.908Z,100191.60
2023-07-03T21:24:54.237Z,100188.60
2023-07-03T21:27:25.391Z,100187.28
2023-07-03T21:29:56.721Z,100189.33
2023-07-03T21:32:29.594Z,100186.73
2023-07-03T21:35:01.037Z,100186.33
2023-07-03T21:37:32.723Z,100182.34
2023-07-03T21:40:05.030Z,100183.77
2023-07-03T21:42:36.020Z,100176.41
2023-07-03T21:45:08.185Z,100173.91
2023-07-03T21:47:39.349Z,100174.08
2023-07-03T21:50:12.544Z,100165.55
2023-07-03T21:52:46.679Z,100166.33
2023-07-03T21:55:17.512Z,100166.54
2023-07-03T21:57:48.664Z,100165.76
2023-07-03T22:00:20.697Z,100167.02
2023-07-03T22:02:51.396Z,100164.20
2023-07-03T22:05:22.356Z,100161.41
2023-07-03T22:07:54.212Z,100158.55
2023-07-03T22:10:25.738Z,100156.40
2023-07-03T22:12:56.824Z,100153.78
2023-07-03T22:15:28.040Z,100158.02
2023-07-03T22:17:59.365Z,100153.05
2023-07-03T22:20:32.057Z,100149.98
2023-07-03T22:23:03.604Z,100144.88
2023-07-03T22:25:35.232Z,100151.11
2023-07-03T22:28:06.487Z,100148.57
2023-07-03T22:30:37.315Z,100141.82
2023-07-03T22:33:08.141Z,100137.05
2023-07-03T22:35:39.109Z,100135.20
2023-07-03T22:38:10.359Z,100132.48
2023-07-03T22:40:41.737Z,100128.00
2023-07-03T22:43:12.597Z,100122.83
2023-07-03T22:45:43.368Z,100125.95
2023-07-03T22:48:15.176Z,100122.42
2023-07-03T22:50:54.640Z,100116.41
2023-07-03T22:53:25.679Z,100116.11
2023-07-03T22:55:56.461Z,100119.85
2023-07-03T22:58:27.356Z,100125.30
2023-07-03T23:00:58.301Z,100116.20
2023-07-03T23:03:30.054Z,100121.10
2023-07-03T23:06:01.505Z,100121.52
2023-07-03T23:08:32.654Z,100121.04
2023-07-03T23:11:04.232Z,100113.55
2023-07-03T23:13:35.096Z,100111.27
2023-07-03T23:16:10.398Z,100109.60
2023-07-03T23:18:43.161Z,100106.55
2023-07-03T23:21:16.611Z,100110.77
2023-07-03T23:23:47.617Z,100108.89
2023-07-03T23:26:19.315Z,100113.14
2023-07-03T23:28:50.170Z,100116.41
2023-07-03T23:31:21.399Z,100113.25
2023-07-03T23:33:52.544Z,100116.45
2023-07-03T23:36:24.505Z,100115.45
2023-07-03T23:38:57.705Z,100114.27
2023-07-03T23:41:28.719Z,100118.28
2023-07-03T23:43:59.919Z,100119.33
2023-07-03T23:46:33.035Z,100121.55
2023-07-03T23:49:03.870Z,100123.71
2023-07-03T23:51:35.218Z,100120.69
2023-07-03T23:54:07.678Z,100121.11
2023-07-03T23:56:39.426Z,100127.38
2023-07-03T23:59:11.000Z,100127.61
